Sonora, California
Current Conditions -  °F | °C
As of 10:55 PM on Thursday 18 Dec 2014 (Local Time) from KO22 Reporting Station
Broken Clouds Broken Clouds  
Wind Chill: 36°   Ceiling: 10000
Heat Index: 39°   Visibility: 10mi
Dew Point: 39°   Wind: 5mph
Humidity: 100%   Direction: 110°ESE
Pressure: 30.16"   Gusts: NA
Location:  37.98°N, 120.38°W
Report Text: KO22 190655Z AUTO 11004KT 10SM BKN100 04/04 A3016 RMK AO1
Loading
Personal Weather Stations






























Interactive Weather Map New forecast layout! Learn more

10-Day Weather Forecast

Advertisements
Track Severe Weather on mobile